Time;durP1;ratioP1;P1;durP2;ratioP2;P2;SDS_P1;SDS_P2;PMS_P1;PMS_P2;Temp;Humidity;BMP_temperature;BMP_pressure;BME280_temperature;BME280_humidity;BME280_pressure;Samples;Min_cycle;Max_cycle;Signal;HPM_P1;HPM_P2
2022/05/23 04:59:00;;;;;;;;;;;;;;;23.60;56.08;95917.94;4245174;27;10426;-71
2022/05/23 05:01:03;;;;;;;;;;;;;;;23.85;55.96;95918.59;4242872;27;5661;-71
2022/05/23 05:03:07;;;;;;;;;;;;;;;24.04;55.87;95924.69;4243849;27;5683;-71
2022/05/23 05:05:12;;;;;;;;;;;;;;;24.21;55.29;95924.88;4241269;27;5657;-70
2022/05/23 05:07:15;;;;;;;;;;;;;;;24.35;55.55;95931.13;4244130;27;5858;-71
2022/05/23 05:09:18;;;;;;;;;;;;;;;24.49;54.99;95933.81;4246308;27;5733;-71
2022/05/23 05:11:21;;;;;;;;;;;;;;;24.60;54.92;95929.00;4248635;27;5654;-71
2022/05/23 05:13:24;;;;;;;;;;;;;;;24.71;54.53;95924.16;4248587;27;5638;-71
2022/05/23 05:15:29;;;;;;;;;;;;;;;24.80;54.61;95916.91;4242422;27;5659;-71
2022/05/23 05:17:32;;;;;;;;;;;;;;;24.87;54.05;95918.09;4247861;27;5661;-72
2022/05/23 05:19:35;;;;;;;;;;;;;;;24.95;53.95;95917.38;4245174;27;5893;-72
2022/05/23 05:21:38;;;;;;;;;;;;;;;25.02;53.83;95914.25;4243787;27;5638;-72
2022/05/23 05:23:44;;;;;;;;;;;;;;;25.06;53.72;95906.34;4242854;27;5668;-71
2022/05/23 05:25:47;;;;;;;;;;;;;;;25.12;53.58;95907.81;4243657;27;5897;-72
2022/05/23 05:27:50;;;;;;;;;;;;;;;25.16;53.43;95898.00;4240852;27;5681;-71
2022/05/23 05:29:53;;;;;;;;;;;;;;;25.23;53.31;95901.06;4250950;27;5634;-71
2022/05/23 05:32:02;;;;;;;;;;;;;;;25.30;52.85;95893.31;4246372;27;5697;-71
2022/05/23 05:34:12;;;;;;;;;;;;;;;25.36;52.69;95897.47;4239670;27;5788;-71
2022/05/23 05:36:20;;;;;;;;;;;;;;;25.43;52.63;95891.63;4231712;27;6553;-71
2022/05/23 05:38:29;;;;;;;;;;;;;;;25.49;52.52;95903.94;4231152;28;5674;-71
2022/05/23 05:40:35;;;;;;;;;;;;;;;25.54;52.58;95904.59;4231360;28;5720;-71
2022/05/23 05:42:42;;;;;;;;;;;;;;;25.61;52.37;95909.56;4231238;28;5678;-71
2022/05/23 05:44:49;;;;;;;;;;;;;;;25.66;52.10;95911.34;4231156;28;5792;-71
2022/05/23 05:46:59;;;;;;;;;;;;;;;25.69;52.17;95916.97;4237800;27;5650;-71
2022/05/23 05:49:27;;;;;;;;;;;;;;;25.74;52.07;95918.75;4244458;27;5782;-71
2022/05/23 05:51:31;;;;;;;;;;;;;;;25.73;52.23;95912.53;4245321;27;5751;-71
2022/05/23 05:53:34;;;;;;;;;;;;;;;25.70;52.33;95912.34;4234912;27;5830;-71
2022/05/23 05:55:39;;;;;;;;;;;;;;;25.66;52.77;95919.47;4247770;27;5842;-71
2022/05/23 05:57:42;;;;;;;;;;;;;;;25.61;53.14;95928.53;4246787;27;5703;-71
2022/05/23 05:59:45;;;;;;;;;;;;;;;25.57;53.11;95932.13;4237596;27;5809;-70
2022/05/23 06:01:48;;;;;;;;;;;;;;;25.54;53.27;95939.78;4232461;27;6363;-70
2022/05/23 06:03:52;;;;;;;;;;;;;;;25.51;53.21;95937.69;4234997;28;5091;-74
2022/05/23 06:13:00;;;;;;;;;;;;;;;25.43;53.60;95934.94;4236504;28;5657;-74
2022/05/23 06:15:03;;;;;;;;;;;;;;;25.41;53.55;95929.03;4235480;28;5609;-74
2022/05/23 06:17:07;;;;;;;;;;;;;;;25.38;53.97;95925.03;4236318;28;7690;-74
2022/05/23 06:19:12;;;;;;;;;;;;;;;25.40;53.63;95924.72;4235523;28;7789;-74
2022/05/23 06:21:15;;;;;;;;;;;;;;;25.41;53.98;95932.53;4236411;28;5712;-74
2022/05/23 06:23:21;;;;;;;;;;;;;;;25.44;53.59;95921.09;4236449;27;5737;-74
2022/05/23 06:25:24;;;;;;;;;;;;;;;25.47;53.81;95927.78;4236202;28;5748;-73
2022/05/23 06:27:27;;;;;;;;;;;;;;;25.49;53.60;95929.09;4236219;28;5752;-75
2022/05/23 06:29:30;;;;;;;;;;;;;;;25.51;53.75;95920.66;4234843;28;5616;-74
2022/05/23 06:31:34;;;;;;;;;;;;;;;25.54;53.44;95925.44;4236362;27;5654;-74
2022/05/23 06:33:37;;;;;;;;;;;;;;;25.55;53.40;95921.63;4235880;28;5744;-74
2022/05/23 06:35:41;;;;;;;;;;;;;;;25.56;53.49;95912.41;4235295;28;5624;-74
2022/05/23 06:37:45;;;;;;;;;;;;;;;25.59;53.27;95917.19;4236408;28;5564;-74
2022/05/23 06:39:48;;;;;;;;;;;;;;;25.62;53.54;95910.38;4236608;28;5699;-74
2022/05/23 06:41:51;;;;;;;;;;;;;;;25.64;53.05;95911.66;4236131;28;5646;-74
2022/05/23 06:43:54;;;;;;;;;;;;;;;25.66;53.22;95906.72;4235975;28;5820;-74
2022/05/23 06:45:59;;;;;;;;;;;;;;;25.69;53.08;95894.47;4236314;28;5736;-74
2022/05/23 06:48:02;;;;;;;;;;;;;;;25.72;53.09;95888.50;4235633;28;5630;-74
2022/05/23 06:50:07;;;;;;;;;;;;;;;25.73;52.75;95884.66;4235724;27;5701;-74
2022/05/23 06:52:15;;;;;;;;;;;;;;;25.74;52.78;95888.97;4236202;28;5665;-74
2022/05/23 06:54:18;;;;;;;;;;;;;;;25.74;52.77;95886.25;4236172;28;5657;-74
2022/05/23 06:56:21;;;;;;;;;;;;;;;25.73;52.85;95884.66;4236242;28;6168;-75
2022/05/23 06:58:24;;;;;;;;;;;;;;;25.78;53.00;95879.09;4235478;28;6031;-74
2022/05/23 07:00:27;;;;;;;;;;;;;;;25.83;53.20;95884.41;4236143;28;5646;-74
2022/05/23 07:02:32;;;;;;;;;;;;;;;25.88;53.01;95876.13;4235958;28;6407;-74
2022/05/23 07:13:56;;;;;;;;;;;;;;;26.09;53.37;95884.47;4219274;28;5777;-74
2022/05/23 07:15:59;;;;;;;;;;;;;;;26.11;53.53;95883.06;4218719;28;5618;-74
2022/05/23 07:18:03;;;;;;;;;;;;;;;26.16;53.46;95881.31;4217106;28;5622;-74
2022/05/23 07:20:08;;;;;;;;;;;;;;;26.18;53.07;95885.31;4218573;28;6379;-74
2022/05/23 07:22:15;;;;;;;;;;;;;;;26.24;53.13;95889.47;4218804;28;5633;-74
2022/05/23 07:24:19;;;;;;;;;;;;;;;26.31;53.10;95902.56;4218614;28;5063;-75
2022/05/23 07:26:23;;;;;;;;;;;;;;;26.36;53.17;95913.22;4218537;28;5732;-74
2022/05/23 07:28:26;;;;;;;;;;;;;;;26.39;52.81;95915.38;4217307;28;6224;-74
2022/05/23 07:30:28;;;;;;;;;;;;;;;26.41;52.99;95915.84;4218900;28;5646;-74
2022/05/23 07:32:31;;;;;;;;;;;;;;;26.42;52.84;95911.22;4218504;28;5725;-74
2022/05/23 07:34:34;;;;;;;;;;;;;;;26.45;52.66;95903.25;4218327;28;5654;-74
2022/05/23 07:36:37;;;;;;;;;;;;;;;26.49;52.58;95900.69;4217341;28;5587;-75
2022/05/23 07:38:41;;;;;;;;;;;;;;;26.52;52.43;95903.59;4218117;28;5721;-74
2022/05/23 07:40:49;;;;;;;;;;;;;;;26.55;52.17;95894.03;4218404;28;5813;-74
2022/05/23 07:42:52;;;;;;;;;;;;;;;26.57;52.43;95891.78;4218407;28;5658;-74
2022/05/23 07:44:55;;;;;;;;;;;;;;;26.56;52.52;95876.63;4218367;28;5638;-75
2022/05/23 07:46:58;;;;;;;;;;;;;;;26.54;52.53;95866.13;4217947;28;5645;-74
2022/05/23 07:49:02;;;;;;;;;;;;;;;26.54;52.20;95859.91;4217143;28;5760;-74
2022/05/23 07:51:09;;;;;;;;;;;;;;;26.53;52.21;95855.59;4218232;28;5715;-75
2022/05/23 08:00:32;;;;;;;;;;;;;;;26.74;51.61;95853.88;4218250;28;5738;-75
2022/05/23 08:02:39;;;;;;;;;;;;;;;26.76;51.32;95853.53;4217868;28;5754;-75
2022/05/23 08:04:42;;;;;;;;;;;;;;;26.79;51.15;95852.88;4217707;28;5663;-74
2022/05/23 08:06:45;;;;;;;;;;;;;;;26.85;50.87;95857.06;4217935;28;5741;-74
2022/05/23 08:08:48;;;;;;;;;;;;;;;26.90;50.88;95865.00;4217598;28;5687;-74
2022/05/23 08:10:51;;;;;;;;;;;;;;;26.94;50.72;95865.97;4217987;28;5684;-74
2022/05/23 08:12:57;;;;;;;;;;;;;;;26.92;50.88;95876.34;4217771;28;5667;-74
2022/05/23 08:15:00;;;;;;;;;;;;;;;26.91;50.85;95872.81;4218006;28;5671;-75
2022/05/23 08:17:03;;;;;;;;;;;;;;;26.89;50.70;95879.69;4217821;28;5667;-74
2022/05/23 08:19:08;;;;;;;;;;;;;;;26.89;50.47;95874.25;4217739;28;5688;-74
2022/05/23 08:21:11;;;;;;;;;;;;;;;26.88;50.78;95870.75;4217671;28;5656;-74
2022/05/23 08:23:15;;;;;;;;;;;;;;;26.88;50.69;95859.13;4217558;28;5789;-74
2022/05/23 08:25:19;;;;;;;;;;;;;;;26.89;50.59;95858.78;4217857;28;5762;-74
2022/05/23 08:27:22;;;;;;;;;;;;;;;26.89;50.55;95852.56;4216499;28;5811;-75
2022/05/23 08:29:27;;;;;;;;;;;;;;;26.90;50.47;95856.88;4216335;28;5779;-74
2022/05/23 08:31:31;;;;;;;;;;;;;;;26.90;50.18;95848.75;4217634;28;5660;-74
2022/05/23 08:33:34;;;;;;;;;;;;;;;26.91;50.32;95853.84;4217287;28;5088;-74
2022/05/23 08:35:37;;;;;;;;;;;;;;;26.92;50.32;95854.63;4217724;28;5782;-75
2022/05/23 08:37:41;;;;;;;;;;;;;;;26.94;50.22;95857.81;4217787;28;5683;-75
2022/05/23 08:39:46;;;;;;;;;;;;;;;26.95;50.02;95854.00;4217744;28;5707;-74
2022/05/23 08:41:52;;;;;;;;;;;;;;;26.95;50.09;95860.22;4218297;28;5703;-74
2022/05/23 08:44:05;;;;;;;;;;;;;;;26.96;49.94;95866.47;4216562;28;6377;-74
2022/05/23 08:46:24;;;;;;;;;;;;;;;26.99;50.00;95876.66;4217678;28;5818;-75
2022/05/23 08:48:36;;;;;;;;;;;;;;;26.99;49.98;95879.38;4217357;28;5682;-74
2022/05/23 08:50:49;;;;;;;;;;;;;;;26.97;50.02;95885.13;4216016;28;5104;-74
2022/05/23 08:52:57;;;;;;;;;;;;;;;26.97;49.82;95889.75;4217345;28;5766;-74
2022/05/23 08:55:05;;;;;;;;;;;;;;;26.98;50.07;95888.63;4217282;28;5790;-74
2022/05/23 08:57:16;;;;;;;;;;;;;;;26.97;50.07;95893.25;4217561;28;6534;-74
2022/05/23 08:59:25;;;;;;;;;;;;;;;26.97;49.96;95890.53;4217467;28;5710;-74
2022/05/23 09:01:39;;;;;;;;;;;;;;;26.99;49.84;95888.31;4217477;28;5722;-74
2022/05/23 09:03:56;;;;;;;;;;;;;;;27.00;49.63;95889.09;4217107;28;5756;-74
2022/05/23 09:06:06;;;;;;;;;;;;;;;27.01;49.70;95870.91;4216250;28;5792;-75
2022/05/23 09:08:14;;;;;;;;;;;;;;;27.03;49.74;95877.63;4217300;28;5683;-74
2022/05/23 09:10:22;;;;;;;;;;;;;;;27.04;49.76;95870.28;4217401;28;5656;-74
2022/05/23 09:12:26;;;;;;;;;;;;;;;27.06;49.58;95865.34;4217519;28;5679;-74
2022/05/23 09:14:30;;;;;;;;;;;;;;;27.07;49.66;95840.63;4217561;28;5663;-74
2022/05/23 09:16:40;;;;;;;;;;;;;;;27.07;49.67;95840.63;4217342;28;7212;-74
2022/05/23 09:18:48;;;;;;;;;;;;;;;27.08;49.56;95842.22;4216869;28;5863;-74
2022/05/23 09:20:58;;;;;;;;;;;;;;;27.09;49.54;95843.00;4217365;28;5671;-74
2022/05/23 09:23:07;;;;;;;;;;;;;;;27.10;49.46;95826.41;4217105;28;5667;-75
2022/05/23 09:25:24;;;;;;;;;;;;;;;27.09;49.55;95827.53;4217194;28;5787;-74
2022/05/23 09:27:36;;;;;;;;;;;;;;;27.08;49.67;95820.53;4217481;28;5754;-75
2022/05/23 09:29:39;;;;;;;;;;;;;;;27.08;49.48;95825.94;4217088;28;5743;-75
2022/05/23 09:31:51;;;;;;;;;;;;;;;27.07;49.72;95831.66;4217172;28;5683;-74
2022/05/23 09:33:57;;;;;;;;;;;;;;;27.08;49.66;95825.16;4217603;28;5690;-75
2022/05/23 09:36:11;;;;;;;;;;;;;;;27.11;49.70;95819.06;4220589;28;5691;-74
2022/05/23 09:38:18;;;;;;;;;;;;;;;27.14;49.56;95813.00;4220356;28;5687;-75
2022/05/23 09:40:27;;;;;;;;;;;;;;;27.14;49.51;95807.56;4220359;28;5080;-74
2022/05/23 09:49:46;;;;;;;;;;;;;;;27.13;49.68;95793.22;4219628;28;5650;-75
2022/05/23 09:51:55;;;;;;;;;;;;;;;27.07;49.88;95785.56;4220290;28;5744;-74
2022/05/23 09:54:03;;;;;;;;;;;;;;;27.12;49.86;95796.25;4220279;28;5681;-74
2022/05/23 09:56:29;;;;;;;;;;;;;;;27.17;49.65;95793.34;4220273;28;5642;-74
2022/05/23 09:58:35;;;;;;;;;;;;;;;27.21;49.56;95792.41;4218322;28;5516;-75
2022/05/23 10:00:55;;;;;;;;;;;;;;;27.30;49.44;95786.97;4219841;28;5622;-74
2022/05/23 10:03:07;;;;;;;;;;;;;;;27.39;49.91;95786.91;4219817;28;5765;-75
2022/05/23 10:05:24;;;;;;;;;;;;;;;27.43;49.29;95777.00;4219108;28;5732;-74
2022/05/23 10:07:31;;;;;;;;;;;;;;;27.48;49.31;95771.38;4219992;28;5629;-75
2022/05/23 10:09:37;;;;;;;;;;;;;;;27.51;49.34;95771.53;4220027;28;5634;-74
2022/05/23 10:11:41;;;;;;;;;;;;;;;27.56;49.31;95765.13;4219730;28;5637;-75
2022/05/23 10:13:51;;;;;;;;;;;;;;;27.58;49.16;95757.44;4219980;28;5653;-74
2022/05/23 10:15:57;;;;;;;;;;;;;;;27.60;49.27;95774.19;4219808;28;5637;-74
2022/05/23 10:18:04;;;;;;;;;;;;;;;27.64;49.19;95780.59;4219828;28;5653;-74
2022/05/23 10:20:24;;;;;;;;;;;;;;;27.70;49.14;95786.66;4218285;28;5768;-75
2022/05/23 10:22:27;;;;;;;;;;;;;;;27.75;49.05;95784.56;4219865;28;5719;-74
2022/05/23 10:24:31;;;;;;;;;;;;;;;27.80;49.10;95787.06;4219500;28;5716;-74
2022/05/23 10:26:43;;;;;;;;;;;;;;;27.87;49.07;95788.50;4219705;28;5630;-75
2022/05/23 10:28:52;;;;;;;;;;;;;;;27.90;49.02;95785.91;4218427;28;6202;-75
2022/05/23 10:31:01;;;;;;;;;;;;;;;27.92;49.00;95778.22;4218502;28;5536;-75
2022/05/23 10:33:10;;;;;;;;;;;;;;;27.95;48.79;95783.00;4219686;28;5076;-75
2022/05/23 10:35:21;;;;;;;;;;;;;;;27.97;48.94;95779.94;4219183;28;5622;-75
2022/05/23 10:37:27;;;;;;;;;;;;;;;27.97;48.93;95780.75;4219712;28;5726;-74
2022/05/23 10:42:09;;;;;;;;;;;;;;;28.01;48.96;95775.47;4219471;28;5642;-74
2022/05/23 10:44:26;;;;;;;;;;;;;;;28.02;48.85;95779.78;4219156;28;5637;-75
2022/05/23 10:46:34;;;;;;;;;;;;;;;28.01;48.76;95770.03;4218099;28;5575;-75
2022/05/23 10:48:46;;;;;;;;;;;;;;;27.99;48.89;95766.84;4221850;28;5725;-75
2022/05/23 10:50:55;;;;;;;;;;;;;;;27.96;48.91;95771.00;4236123;27;5689;-75
2022/05/23 10:53:10;;;;;;;;;;;;;;;27.97;49.05;95771.78;4236369;28;5716;-75
2022/05/23 10:55:28;;;;;;;;;;;;;;;27.96;49.12;95764.78;4236173;28;5681;-75
2022/05/23 10:57:51;;;;;;;;;;;;;;;27.96;49.13;95768.28;4235780;27;5646;-75
2022/05/23 11:00:03;;;;;;;;;;;;;;;27.99;49.09;95762.22;4235628;28;5650;-75
2022/05/23 11:02:22;;;;;;;;;;;;;;;28.00;48.98;95768.44;4235784;28;5736;-75
2022/05/23 11:04:50;;;;;;;;;;;;;;;27.93;49.09;95770.88;4234355;28;5699;-75
2022/05/23 11:07:06;;;;;;;;;;;;;;;27.87;48.97;95758.63;4235785;27;5634;-75
2022/05/23 11:09:24;;;;;;;;;;;;;;;27.85;49.10;95746.13;4236051;28;5727;-75
2022/05/23 11:11:42;;;;;;;;;;;;;;;27.84;48.95;95738.31;4235766;27;6331;-75
2022/05/23 11:14:02;;;;;;;;;;;;;;;27.83;49.29;95740.25;4235965;28;5761;-75
2022/05/23 11:16:13;;;;;;;;;;;;;;;27.83;49.19;95740.25;4235720;27;5716;-75
2022/05/23 11:18:32;;;;;;;;;;;;;;;27.83;49.13;95737.53;4235633;28;5673;-75
2022/05/23 11:20:38;;;;;;;;;;;;;;;27.86;49.20;95741.50;4234007;28;5805;-75
2022/05/23 11:22:44;;;;;;;;;;;;;;;27.88;49.17;95738.47;4235493;27;5661;-74
2022/05/23 11:25:02;;;;;;;;;;;;;;;27.87;49.22;95726.03;4235237;27;5717;-75
2022/05/23 11:34:36;;;;;;;;;;;;;;;27.88;49.10;95719.47;4159008;28;6302;-75
2022/05/23 11:36:56;;;;;;;;;;;;;;;27.92;49.04;95717.69;4150725;28;5622;-75
2022/05/23 11:38:59;;;;;;;;;;;;;;;27.87;48.99;95707.03;4150284;28;5703;-74
2022/05/23 11:41:10;;;;;;;;;;;;;;;27.85;49.18;95710.84;4162843;28;5597;-75
2022/05/23 11:43:18;;;;;;;;;;;;;;;27.82;48.99;95706.06;4150311;28;5614;-74
2022/05/23 11:47:55;;;;;;;;;;;;;;;27.74;49.04;95698.75;4159117;28;5771;-74
2022/05/23 11:50:17;;;;;;;;;;;;;;;27.73;49.07;95689.03;4153909;28;5612;-74
2022/05/23 11:52:27;;;;;;;;;;;;;;;27.73;49.00;95693.66;4158302;28;5780;-73
2022/05/23 11:54:40;;;;;;;;;;;;;;;27.75;49.03;95686.81;4150674;28;5804;-73
2022/05/23 11:57:30;;;;;;;;;;;;;;;27.81;48.88;95684.69;4162456;28;5726;-74
2022/05/23 12:00:01;;;;;;;;;;;;;;;27.87;48.89;95691.53;4159369;28;5601;-73
2022/05/23 12:02:22;;;;;;;;;;;;;;;27.96;48.71;95696.88;4130684;28;5766;-73
2022/05/23 12:04:25;;;;;;;;;;;;;;;28.01;48.65;95696.69;4156149;28;5688;-73
2022/05/23 12:06:37;;;;;;;;;;;;;;;28.08;48.51;95691.50;4191146;28;5844;-73
2022/05/23 12:09:01;;;;;;;;;;;;;;;28.16;48.38;95690.66;4228509;28;5883;-73
2022/05/23 12:11:21;;;;;;;;;;;;;;;28.22;48.26;95683.91;4217640;28;5675;-74
2022/05/23 12:13:46;;;;;;;;;;;;;;;28.25;48.10;95688.66;4228990;28;5778;-73
2022/05/23 12:15:53;;;;;;;;;;;;;;;28.25;48.04;95694.09;4229599;28;5686;-73
2022/05/23 12:18:01;;;;;;;;;;;;;;;28.27;47.92;95694.59;4220001;28;5686;-73
2022/05/23 12:20:22;;;;;;;;;;;;;;;28.28;47.98;95693.44;4223610;28;5649;-73
2022/05/23 12:22:28;;;;;;;;;;;;;;;28.28;47.87;95688.00;4233053;28;5641;-73
2022/05/23 12:24:35;;;;;;;;;;;;;;;28.28;48.03;95690.72;4221590;28;5781;-74
2022/05/23 12:26:50;;;;;;;;;;;;;;;28.28;47.86;95695.38;4233569;28;7691;-73
2022/05/23 12:28:57;;;;;;;;;;;;;;;28.29;47.84;95688.81;4232945;28;5649;-73
2022/05/23 12:31:16;;;;;;;;;;;;;;;28.28;47.87;95676.34;4232321;28;5612;-73
2022/05/23 12:33:24;;;;;;;;;;;;;;;28.26;47.73;95679.38;4224843;28;5671;-73
2022/05/23 12:35:32;;;;;;;;;;;;;;;28.28;47.81;95666.28;4230071;28;5830;-73
2022/05/23 12:37:38;;;;;;;;;;;;;;;28.32;47.97;95674.56;4230787;28;5642;-73
2022/05/23 12:39:59;;;;;;;;;;;;;;;28.29;47.80;95677.94;4230654;27;5744;-73
2022/05/23 12:42:14;;;;;;;;;;;;;;;28.29;47.70;95673.28;4228580;28;5831;-73
2022/05/23 12:45:11;;;;;;;;;;;;;;;28.30;47.65;95672.16;4234536;28;5653;-73
2022/05/23 12:47:28;;;;;;;;;;;;;;;28.29;47.53;95678.72;4165684;28;5793;-73
2022/05/23 12:49:46;;;;;;;;;;;;;;;28.27;47.42;95685.59;4186326;28;5785;-73
2022/05/23 12:51:57;;;;;;;;;;;;;;;28.27;47.58;95685.59;4180376;28;6418;-72
2022/05/23 12:54:36;;;;;;;;;;;;;;;28.30;47.62;95685.75;4178753;28;5107;-73
2022/05/23 12:56:57;;;;;;;;;;;;;;;28.33;47.47;95687.81;4187430;28;5685;-74
2022/05/23 12:59:17;;;;;;;;;;;;;;;28.35;47.31;95693.72;4190283;28;5694;-73
2022/05/23 13:01:24;;;;;;;;;;;;;;;28.37;47.40;95677.06;4181550;28;5866;-73
2022/05/23 13:03:44;;;;;;;;;;;;;;;28.39;47.40;95669.38;4181139;28;5806;-73
2022/05/23 13:05:57;;;;;;;;;;;;;;;28.38;47.16;95659.63;4181441;28;5879;-73
2022/05/23 13:08:03;;;;;;;;;;;;;;;28.37;47.27;95660.75;4185775;28;5673;-73
2022/05/23 13:10:09;;;;;;;;;;;;;;;28.37;47.17;95655.31;4185509;28;6854;-73
2022/05/23 13:12:21;;;;;;;;;;;;;;;28.37;47.15;95653.41;4172309;28;5712;-72
2022/05/23 13:14:24;;;;;;;;;;;;;;;28.39;46.83;95647.63;4182679;28;5681;-73
2022/05/23 13:16:29;;;;;;;;;;;;;;;28.44;47.16;95641.22;4183341;28;5891;-73
2022/05/23 13:23:25;;;;;;;;;;;;;;;28.34;46.57;95618.75;4235560;28;5816;-73
2022/05/23 13:25:29;;;;;;;;;;;;;;;28.34;46.40;95626.91;4234140;27;5747;-72
2022/05/23 13:27:37;;;;;;;;;;;;;;;28.37;46.18;95630.88;4228283;28;5673;-73
2022/05/23 13:29:41;;;;;;;;;;;;;;;28.39;46.21;95620.44;4230953;28;5673;-73
2022/05/23 13:31:45;;;;;;;;;;;;;;;28.39;46.03;95620.44;4227008;28;5918;-73
2022/05/23 13:33:48;;;;;;;;;;;;;;;28.37;45.72;95620.00;4237211;28;5745;-74
2022/05/23 13:35:56;;;;;;;;;;;;;;;28.37;45.77;95620.00;4228105;28;5123;-74
2022/05/23 13:38:13;;;;;;;;;;;;;;;28.35;45.52;95612.19;4230837;27;5748;-74
2022/05/23 13:40:19;;;;;;;;;;;;;;;28.35;45.37;95609.47;4235125;28;5703;-73
2022/05/23 13:42:25;;;;;;;;;;;;;;;28.33;45.19;95613.66;4233845;28;5831;-74
2022/05/23 13:44:32;;;;;;;;;;;;;;;28.28;45.06;95611.13;4234902;27;5883;-73
2022/05/23 13:46:40;;;;;;;;;;;;;;;28.26;44.56;95622.31;4236120;28;5717;-74
2022/05/23 13:48:47;;;;;;;;;;;;;;;28.24;44.41;95621.84;4235621;27;5649;-74
2022/05/23 13:50:54;;;;;;;;;;;;;;;28.27;44.04;95629.38;4236226;28;5642;-74
2022/05/23 13:53:02;;;;;;;;;;;;;;;28.31;43.86;95632.19;4235349;27;5673;-74
2022/05/23 13:55:10;;;;;;;;;;;;;;;28.33;43.63;95638.91;4235960;28;5653;-74
2022/05/23 13:57:17;;;;;;;;;;;;;;;28.37;43.50;95636.31;4234058;28;5752;-74
2022/05/23 13:59:25;;;;;;;;;;;;;;;28.39;43.37;95644.91;4228183;28;5853;-72
2022/05/23 14:01:33;;;;;;;;;;;;;;;28.39;43.24;95644.91;4223021;28;5758;-72
2022/05/23 14:03:41;;;;;;;;;;;;;;;28.42;43.18;95645.03;4224569;28;5743;-72
2022/05/23 14:05:48;;;;;;;;;;;;;;;28.42;42.91;95650.47;4220073;28;5089;-73
2022/05/23 14:07:54;;;;;;;;;;;;;;;28.44;42.82;95655.59;4219426;28;5283;-73
2022/05/23 14:09:57;;;;;;;;;;;;;;;28.44;42.76;95665.66;4220170;28;5655;-73
2022/05/23 14:12:07;;;;;;;;;;;;;;;28.42;42.50;95660.53;4230277;28;5672;-71
2022/05/23 14:14:17;;;;;;;;;;;;;;;28.41;42.71;95659.75;4229269;27;6252;-72
2022/05/23 14:16:21;;;;;;;;;;;;;;;28.38;42.51;95665.88;4219492;28;5681;-72
2022/05/23 14:18:31;;;;;;;;;;;;;;;28.38;42.22;95667.78;4228018;28;5749;-72
2022/05/23 14:20:39;;;;;;;;;;;;;;;28.36;42.16;95664.63;4223961;28;5964;-72
2022/05/23 14:22:59;;;;;;;;;;;;;;;28.35;42.02;95674.69;4223932;28;5722;-73
2022/05/23 14:25:15;;;;;;;;;;;;;;;28.32;41.81;95680.00;4226480;28;5826;-71
2022/05/23 14:27:26;;;;;;;;;;;;;;;28.30;41.72;95688.47;4222913;28;5680;-71
2022/05/23 14:29:29;;;;;;;;;;;;;;;28.27;41.61;95689.16;4232893;28;5741;-71
2022/05/23 14:31:44;;;;;;;;;;;;;;;28.26;41.26;95686.72;4236587;28;5646;-71
2022/05/23 14:33:58;;;;;;;;;;;;;;;28.22;41.22;95697.47;4236542;28;5653;-71
2022/05/23 14:36:03;;;;;;;;;;;;;;;28.16;41.06;95717.81;4235060;28;5793;-72
2022/05/23 14:38:19;;;;;;;;;;;;;;;28.11;40.81;95710.66;4233369;28;5608;-72
2022/05/23 14:40:28;;;;;;;;;;;;;;;28.07;40.93;95706.22;4231778;28;5088;-72
2022/05/23 14:42:39;;;;;;;;;;;;;;;28.04;40.67;95715.03;4236774;28;5662;-73
2022/05/23 14:44:42;;;;;;;;;;;;;;;28.03;40.47;95714.25;4235652;28;5661;-68
2022/05/23 14:47:01;;;;;;;;;;;;;;;27.97;40.28;95731.06;4227985;27;5753;-70
2022/05/23 14:49:27;;;;;;;;;;;;;;;27.90;40.24;95730.81;4223416;28;5744;-69
2022/05/23 14:51:34;;;;;;;;;;;;;;;27.90;40.21;95741.66;4229542;27;5634;-67
2022/05/23 14:56:10;;;;;;;;;;;;;;;27.87;39.87;95756.69;4225213;28;5873;-66
2022/05/23 15:00:48;;;;;;;;;;;;;;;27.76;39.79;95764.44;4231925;28;5658;-78
2022/05/23 15:02:51;;;;;;;;;;;;;;;27.67;39.49;95771.81;4233529;28;5715;-75
2022/05/23 15:04:59;;;;;;;;;;;;;;;27.62;39.76;95795.59;4235514;27;5659;-75
2022/05/23 15:07:03;;;;;;;;;;;;;;;27.54;39.84;95779.03;4236579;28;5733;-77
2022/05/23 15:09:06;;;;;;;;;;;;;;;27.53;39.73;95784.78;4231989;28;5757;-73
2022/05/23 15:11:14;;;;;;;;;;;;;;;27.51;39.75;95790.53;4235523;27;5721;-74
2022/05/23 15:13:18;;;;;;;;;;;;;;;27.50;39.88;95797.06;4226257;27;5744;-80
2022/05/23 15:15:21;;;;;;;;;;;;;;;27.47;39.72;95791.50;4232085;28;5693;-81
2022/05/23 15:17:26;;;;;;;;;;;;;;;27.41;39.67;95798.22;4229996;27;5729;-82
2022/05/23 15:19:30;;;;;;;;;;;;;;;27.39;39.55;95806.69;4226790;27;5678;-81
2022/05/23 15:21:34;;;;;;;;;;;;;;;27.38;39.63;95812.44;4223738;27;5762;-81
2022/05/23 15:23:38;;;;;;;;;;;;;;;27.36;39.22;95798.41;4230473;27;5922;-86
2022/05/23 15:25:41;;;;;;;;;;;;;;;27.36;39.51;95798.41;4233135;27;5748;-82
2022/05/23 15:27:47;;;;;;;;;;;;;;;27.33;39.29;95790.94;4231082;28;5754;-82
2022/05/23 15:29:50;;;;;;;;;;;;;;;27.33;39.47;95793.66;4235232;28;5669;-82
2022/05/23 15:31:53;;;;;;;;;;;;;;;27.32;39.30;95797.47;4234828;28;5662;-83
2022/05/23 15:33:58;;;;;;;;;;;;;;;27.27;39.35;95801.94;4232741;28;6216;-81
2022/05/23 15:36:01;;;;;;;;;;;;;;;27.23;39.44;95801.00;4234788;28;5673;-82
2022/05/23 15:38:05;;;;;;;;;;;;;;;27.21;39.28;95802.47;4235247;27;5729;-76
2022/05/23 15:40:09;;;;;;;;;;;;;;;27.16;39.27;95800.69;4235181;27;5638;-76
2022/05/23 15:42:25;;;;;;;;;;;;;;;27.12;39.40;95797.03;4235329;28;5649;-76
2022/05/23 15:44:35;;;;;;;;;;;;;;;27.09;39.03;95805.84;4234894;28;5757;-77
2022/05/23 15:46:41;;;;;;;;;;;;;;;27.06;39.09;95806.47;4235166;27;6235;-76
2022/05/23 15:48:44;;;;;;;;;;;;;;;27.06;39.14;95806.47;4235134;27;5761;-76
2022/05/23 15:51:00;;;;;;;;;;;;;;;27.05;38.95;95807.59;4200169;28;5243;-76
2022/05/23 15:53:06;;;;;;;;;;;;;;;27.01;39.31;95806.59;4199084;28;5662;-75
2022/05/23 15:55:10;;;;;;;;;;;;;;;26.96;39.30;95818.44;4197332;28;5752;-76
2022/05/23 15:57:14;;;;;;;;;;;;;;;26.95;39.15;95814.09;4198942;28;6439;-77
2022/05/23 15:59:19;;;;;;;;;;;;;;;26.95;39.32;95824.94;4199316;28;5669;-77
2022/05/23 16:01:23;;;;;;;;;;;;;;;26.98;39.21;95820.81;4199237;28;5729;-77
2022/05/23 16:03:26;;;;;;;;;;;;;;;26.97;39.44;95821.94;4199149;28;5670;-77
2022/05/23 16:05:37;;;;;;;;;;;;;;;26.95;39.35;95822.25;4199350;28;5101;-77
2022/05/23 16:07:40;;;;;;;;;;;;;;;26.94;39.41;95819.84;4199009;28;5718;-77
2022/05/23 16:09:44;;;;;;;;;;;;;;;26.93;39.74;95823.69;4198302;28;5703;-77
2022/05/23 16:11:55;;;;;;;;;;;;;;;26.92;39.83;95811.25;4196314;28;5900;-77
2022/05/23 16:14:05;;;;;;;;;;;;;;;26.88;39.82;95823.88;4197522;28;5726;-77
2022/05/23 16:16:11;;;;;;;;;;;;;;;26.86;40.26;95836.94;4198495;28;5662;-77
2022/05/23 16:18:19;;;;;;;;;;;;;;;26.84;40.37;95842.69;4198101;28;5741;-76
2022/05/23 16:20:24;;;;;;;;;;;;;;;26.83;40.60;95840.28;4180238;28;5681;-77
2022/05/23 16:22:27;;;;;;;;;;;;;;;26.81;40.47;95837.09;4198057;28;5666;-76
2022/05/23 16:24:30;;;;;;;;;;;;;;;26.81;40.72;95853.38;4197927;28;5788;-76
2022/05/23 16:26:52;;;;;;;;;;;;;;;26.77;41.10;95847.78;4197689;28;7282;-76
2022/05/23 16:28:55;;;;;;;;;;;;;;;26.72;41.17;95856.06;4219117;28;5654;-77
2022/05/23 16:30:58;;;;;;;;;;;;;;;26.69;41.06;95845.88;4228639;28;5749;-77
2022/05/23 16:37:44;;;;;;;;;;;;;;;26.56;41.56;95853.03;4231352;28;5645;-76
2022/05/23 16:39:47;;;;;;;;;;;;;;;26.53;41.76;95853.69;4234025;28;5682;-77
2022/05/23 16:42:01;;;;;;;;;;;;;;;26.52;42.09;95856.72;4234066;28;5731;-76
2022/05/23 16:44:05;;;;;;;;;;;;;;;26.49;42.29;95862.75;4230292;28;5836;-76
2022/05/23 16:46:08;;;;;;;;;;;;;;;26.45;42.45;95862.59;4226164;28;5767;-78
2022/05/23 16:48:19;;;;;;;;;;;;;;;26.40;42.49;95860.84;4230056;28;5648;-78
2022/05/23 16:50:22;;;;;;;;;;;;;;;26.35;42.68;95857.44;4223631;28;5669;-78
2022/05/23 16:52:25;;;;;;;;;;;;;;;26.30;42.48;95873.88;4229692;27;5784;-77
2022/05/23 16:54:28;;;;;;;;;;;;;;;26.25;42.50;95876.72;4238780;28;5646;-77
2022/05/23 16:56:30;;;;;;;;;;;;;;;26.21;42.58;95881.97;4234658;28;5761;-77
2022/05/23 16:58:36;;;;;;;;;;;;;;;26.20;42.75;95895.84;4231891;27;7698;-78
2022/05/23 17:00:41;;;;;;;;;;;;;;;26.17;42.85;95910.00;4230734;28;5653;-76
2022/05/23 17:02:44;;;;;;;;;;;;;;;26.11;43.11;95907.44;4221590;28;5605;-77
2022/05/23 17:04:47;;;;;;;;;;;;;;;26.04;43.29;95896.25;4229524;28;5686;-77
2022/05/23 17:06:51;;;;;;;;;;;;;;;26.01;43.38;95894.16;4233899;28;5666;-77
2022/05/23 17:08:55;;;;;;;;;;;;;;;25.98;43.16;95888.59;4234528;28;5634;-77
2022/05/23 17:10:58;;;;;;;;;;;;;;;25.91;43.28;95875.50;4234660;28;6344;-77
2022/05/23 17:13:01;;;;;;;;;;;;;;;25.89;43.27;95876.91;4234736;27;5657;-76